createdAt,value
2018-07-02T00:00:32.669Z,21.70
2018-07-02T00:02:34.696Z,21.70
2018-07-02T00:04:36.856Z,20.60
2018-07-02T00:06:50.556Z,21.20
2018-07-02T00:08:52.556Z,21.80
2018-07-02T00:10:54.568Z,21.70
2018-07-02T00:12:56.593Z,20.80
2018-07-02T00:14:58.613Z,21.10
2018-07-02T00:17:00.640Z,21.40
2018-07-02T00:19:02.689Z,21.60
2018-07-02T00:21:04.801Z,20.80
2018-07-02T00:23:06.823Z,20.60
2018-07-02T00:25:08.864Z,19.60
2018-07-02T00:27:10.989Z,21.60
2018-07-02T00:29:13.005Z,20.90
2018-07-02T00:31:15.042Z,21.20
2018-07-02T00:33:17.060Z,19.90
2018-07-02T00:35:19.100Z,21.40
2018-07-02T00:37:21.137Z,20.80
2018-07-02T00:39:23.164Z,21.30
2018-07-02T00:41:25.215Z,21.40
2018-07-02T00:43:27.249Z,22.10
2018-07-02T00:45:29.302Z,20.00
2018-07-02T00:47:31.334Z,21.50
2018-07-02T00:49:33.365Z,21.30
2018-07-02T00:51:35.517Z,22.70
2018-07-02T00:53:37.548Z,22.30
2018-07-02T00:55:39.637Z,23.30
2018-07-02T00:57:42.681Z,24.00
2018-07-02T00:59:44.700Z,23.40
2018-07-02T01:01:46.724Z,22.60
2018-07-02T01:03:49.305Z,23.90
2018-07-02T01:05:51.328Z,22.50
2018-07-02T01:07:53.347Z,24.60
2018-07-02T01:09:55.385Z,23.60
2018-07-02T01:11:57.395Z,23.70
2018-07-02T01:13:59.424Z,23.20
2018-07-02T01:16:01.469Z,23.50
2018-07-02T01:18:03.805Z,23.70
2018-07-02T01:20:05.831Z,23.60
2018-07-02T01:22:07.860Z,25.10
2018-07-02T01:24:09.900Z,25.00
2018-07-02T01:26:12.603Z,25.30
2018-07-02T01:28:14.629Z,27.60
2018-07-02T01:30:16.678Z,26.00
2018-07-02T01:32:18.721Z,27.70
2018-07-02T01:34:20.765Z,27.80
2018-07-02T01:36:22.804Z,27.40
2018-07-02T01:38:24.832Z,28.20
2018-07-02T01:40:26.876Z,27.40
2018-07-02T01:42:28.903Z,29.30
2018-07-02T01:44:30.936Z,30.40
2018-07-02T01:46:32.981Z,29.30
2018-07-02T01:48:35.026Z,28.60
2018-07-02T01:50:37.067Z,28.20
2018-07-02T01:54:41.247Z,30.50
2018-07-02T01:56:43.256Z,29.90
2018-07-02T01:58:45.281Z,29.90
2018-07-02T02:00:47.315Z,30.20
2018-07-02T02:02:49.336Z,29.20
2018-07-02T02:04:51.373Z,29.50
2018-07-02T02:06:53.448Z,30.00
2018-07-02T02:08:55.496Z,29.60
2018-07-02T02:10:57.537Z,28.50
2018-07-02T02:12:59.580Z,28.50
2018-07-02T02:15:01.642Z,30.00
2018-07-02T02:17:04.062Z,29.50
2018-07-02T02:19:06.645Z,29.80
2018-07-02T02:21:08.691Z,29.80
2018-07-02T02:23:10.730Z,28.50
2018-07-02T02:25:12.773Z,29.40
2018-07-02T02:27:14.881Z,30.30
2018-07-02T02:29:16.910Z,33.10
2018-07-02T02:31:18.952Z,34.60
2018-07-02T02:33:20.993Z,33.50
2018-07-02T02:35:23.026Z,32.90
2018-07-02T02:37:25.064Z,31.10
2018-07-02T02:39:27.077Z,33.60
2018-07-02T02:41:29.117Z,33.40
2018-07-02T02:43:31.148Z,33.60
2018-07-02T02:45:33.172Z,33.40
2018-07-02T02:47:35.204Z,34.30
2018-07-02T02:49:37.233Z,32.30
2018-07-02T02:51:39.260Z,32.10
2018-07-02T02:53:41.337Z,32.80
2018-07-02T02:55:43.362Z,34.10
2018-07-02T02:57:45.407Z,37.20
2018-07-02T02:59:47.432Z,37.00
2018-07-02T03:01:49.483Z,38.70
2018-07-02T03:03:51.541Z,40.20
2018-07-02T03:05:53.569Z,41.50
2018-07-02T03:07:55.605Z,41.70
2018-07-02T03:09:57.656Z,43.30
2018-07-02T03:11:59.689Z,42.70
2018-07-02T03:14:01.741Z,42.50
2018-07-02T03:16:04.269Z,42.80
2018-07-02T03:18:06.373Z,41.60
2018-07-02T03:20:08.441Z,41.70
2018-07-02T03:22:10.520Z,40.80
2018-07-02T03:24:12.626Z,43.00
2018-07-02T03:26:14.653Z,43.90
2018-07-02T03:28:16.736Z,43.90
2018-07-02T03:30:18.772Z,42.50
2018-07-02T03:32:20.852Z,43.00
2018-07-02T03:34:22.899Z,44.60
2018-07-02T03:36:24.941Z,46.60
2018-07-02T03:38:27.037Z,46.10
2018-07-02T03:40:29.085Z,47.20
2018-07-02T03:42:31.116Z,47.40
2018-07-02T03:44:33.155Z,46.40
2018-07-02T03:46:35.560Z,48.30
2018-07-02T03:48:37.600Z,49.20
2018-07-02T03:50:39.676Z,52.60
2018-07-02T03:52:41.816Z,52.00
2018-07-02T03:54:43.888Z,51.30
2018-07-02T03:56:45.940Z,52.00
2018-07-02T03:58:48.057Z,51.40
2018-07-02T04:00:50.144Z,51.40
2018-07-02T04:02:52.168Z,49.70
2018-07-02T04:04:54.223Z,48.70
2018-07-02T04:06:56.261Z,49.00
2018-07-02T04:08:58.296Z,49.50
2018-07-02T04:11:00.324Z,48.40
2018-07-02T04:13:02.385Z,48.20
2018-07-02T04:15:04.395Z,46.00
2018-07-02T04:17:06.424Z,48.30
2018-07-02T04:19:11.514Z,45.50
2018-07-02T04:21:13.549Z,46.40
2018-07-02T04:23:15.572Z,46.10
2018-07-02T04:25:17.595Z,44.90
2018-07-02T04:27:19.637Z,43.10
2018-07-02T04:29:21.651Z,43.80
2018-07-02T04:31:23.685Z,44.20
2018-07-02T04:33:25.881Z,42.70
2018-07-02T04:35:27.913Z,41.10
2018-07-02T04:37:30.010Z,40.60
2018-07-02T04:39:32.061Z,42.20
2018-07-02T04:41:34.124Z,42.30
2018-07-02T04:43:36.169Z,44.60
2018-07-02T04:45:38.214Z,42.00
2018-07-02T04:47:41.052Z,41.40
2018-07-02T04:49:43.105Z,41.20
2018-07-02T04:51:45.140Z,41.10
2018-07-02T04:53:47.176Z,42.60
2018-07-02T04:55:49.224Z,41.40
2018-07-02T04:57:51.273Z,40.60
2018-07-02T04:59:53.317Z,40.70
2018-07-02T05:01:55.381Z,39.70
2018-07-02T05:03:57.483Z,39.10
2018-07-02T05:05:59.565Z,39.00
2018-07-02T05:08:01.625Z,39.90
2018-07-02T05:10:03.676Z,37.50
2018-07-02T05:12:05.745Z,39.10
2018-07-02T05:14:07.832Z,38.20
2018-07-02T05:16:09.927Z,37.70
2018-07-02T05:18:11.956Z,38.40
2018-07-02T05:20:14.000Z,35.70
2018-07-02T05:22:16.040Z,34.10
2018-07-02T05:24:18.056Z,34.30
2018-07-02T05:26:20.071Z,33.70
2018-07-02T05:28:22.124Z,32.90
2018-07-02T05:30:24.156Z,33.80
2018-07-02T05:34:28.509Z,32.70
2018-07-02T05:36:30.547Z,31.40
2018-07-02T05:38:32.610Z,29.80
2018-07-02T05:40:34.717Z,29.70
2018-07-02T05:42:36.784Z,30.80
2018-07-02T05:44:38.850Z,28.30
2018-07-02T05:46:40.896Z,28.20
2018-07-02T05:48:42.952Z,29.70
2018-07-02T05:50:45.044Z,28.50
2018-07-02T05:52:47.093Z,29.30
2018-07-02T05:54:49.211Z,27.70
2018-07-02T05:56:51.429Z,27.40
2018-07-02T05:58:53.678Z,28.90
2018-07-02T06:00:55.837Z,26.90
2018-07-02T06:02:57.913Z,26.30
2018-07-02T06:05:00.051Z,26.40
2018-07-02T06:07:02.073Z,25.10
2018-07-02T06:09:06.980Z,25.10
2018-07-02T06:11:09.001Z,25.40
2018-07-02T06:13:11.056Z,24.30
2018-07-02T06:15:13.084Z,24.10
2018-07-02T06:17:15.125Z,24.50
2018-07-02T06:19:17.146Z,25.00
2018-07-02T06:21:19.180Z,24.40
2018-07-02T06:23:21.248Z,24.50
2018-07-02T06:25:23.268Z,24.00
2018-07-02T06:27:25.291Z,23.40
2018-07-02T06:29:27.330Z,23.80
2018-07-02T06:31:29.348Z,22.20
2018-07-02T06:33:31.380Z,24.30
2018-07-02T06:35:33.398Z,22.40
2018-07-02T06:37:35.572Z,19.30
2018-07-02T06:39:37.605Z,22.50
2018-07-02T06:41:39.631Z,20.80
2018-07-02T06:43:41.656Z,19.00
2018-07-02T06:45:43.763Z,19.60
2018-07-02T06:47:46.036Z,19.50
2018-07-02T06:49:48.059Z,18.90
2018-07-02T06:51:50.085Z,21.60
2018-07-02T06:53:52.104Z,19.70
2018-07-02T06:55:54.137Z,20.20
2018-07-02T06:57:56.172Z,17.80
2018-07-02T06:59:58.204Z,17.60
2018-07-02T07:02:00.241Z,17.10
2018-07-02T07:04:02.317Z,16.90
2018-07-02T07:06:04.402Z,18.20
2018-07-02T07:08:06.432Z,17.40
2018-07-02T07:10:08.466Z,17.00
2018-07-02T07:12:10.498Z,14.80
2018-07-02T07:14:12.538Z,16.00
2018-07-02T07:16:14.557Z,17.30
2018-07-02T07:18:16.587Z,15.30
2018-07-02T07:20:18.634Z,12.80
2018-07-02T07:22:20.669Z,13.40
2018-07-02T07:24:22.716Z,14.30
2018-07-02T07:26:24.750Z,14.20
2018-07-02T07:28:26.786Z,15.30
2018-07-02T07:30:29.044Z,14.10
2018-07-02T07:32:31.090Z,13.90
2018-07-02T07:34:33.115Z,13.90
2018-07-02T07:36:35.136Z,12.30
2018-07-02T07:38:37.168Z,12.90
2018-07-02T07:40:39.215Z,12.40
2018-07-02T07:42:41.236Z,10.30
2018-07-02T07:44:43.282Z,8.90
2018-07-02T07:46:45.292Z,11.10
2018-07-02T07:48:47.350Z,9.60
2018-07-02T07:50:49.392Z,9.10
2018-07-02T07:52:51.586Z,10.20
2018-07-02T07:54:53.631Z,10.10
2018-07-02T07:56:55.665Z,11.90
2018-07-02T07:58:57.733Z,10.50
2018-07-02T08:00:59.744Z,10.80
2018-07-02T08:03:01.778Z,11.50
2018-07-02T08:05:04.525Z,10.00
2018-07-02T08:07:06.612Z,11.70
2018-07-02T08:09:09.840Z,8.80
2018-07-02T08:11:11.908Z,9.70
2018-07-02T08:13:13.960Z,7.90
2018-07-02T08:15:15.984Z,8.40
2018-07-02T08:17:18.034Z,8.00
2018-07-02T08:19:20.065Z,6.90
2018-07-02T08:21:22.107Z,7.60
2018-07-02T08:23:24.164Z,5.90
2018-07-02T08:25:26.201Z,7.60
2018-07-02T08:27:28.230Z,9.30
2018-07-02T08:29:30.261Z,7.00
2018-07-02T08:31:32.310Z,6.90
2018-07-02T08:33:34.337Z,7.70
2018-07-02T08:35:36.357Z,8.30
2018-07-02T08:37:38.460Z,6.50
2018-07-02T08:39:40.555Z,7.10
2018-07-02T08:41:42.641Z,5.60
2018-07-02T08:43:44.757Z,5.40
2018-07-02T08:45:46.817Z,5.70
2018-07-02T08:47:48.870Z,4.40
2018-07-02T08:49:50.896Z,4.70
2018-07-02T08:51:52.977Z,4.60
2018-07-02T08:53:54.996Z,4.50
2018-07-02T08:55:57.029Z,1.30
2018-07-02T08:57:59.168Z,3.10
2018-07-02T09:00:01.225Z,3.20
2018-07-02T09:02:03.253Z,2.40
2018-07-02T09:04:05.385Z,1.40
2018-07-02T09:06:07.443Z,2.20
2018-07-02T09:08:09.448Z,1.80
2018-07-02T09:10:11.488Z,1.00
2018-07-02T09:12:13.516Z,1.00
2018-07-02T09:14:15.529Z,1.00
2018-07-02T09:16:17.554Z,3.50
2018-07-02T09:18:19.573Z,1.00
2018-07-02T09:20:21.593Z,1.00
2018-07-02T09:22:23.616Z,1.00
2018-07-02T09:24:25.652Z,1.00
2018-07-02T09:26:27.693Z,1.00
2018-07-02T09:28:29.720Z,1.00
2018-07-02T09:30:31.748Z,1.00
2018-07-02T09:32:33.876Z,1.00
2018-07-02T09:34:36.128Z,1.00
2018-07-02T09:36:38.583Z,1.00
2018-07-02T09:38:40.472Z,1.00
2018-07-02T09:40:42.489Z,1.00
2018-07-02T09:42:44.526Z,1.00
2018-07-02T09:44:46.753Z,1.00
2018-07-02T09:46:48.664Z,1.00
2018-07-02T09:48:50.675Z,1.00
2018-07-02T09:50:52.713Z,1.00
2018-07-02T09:52:54.955Z,1.00
2018-07-02T09:54:56.746Z,1.00
2018-07-02T09:56:58.757Z,1.00
2018-07-02T09:59:01.037Z,1.00
2018-07-02T10:01:03.056Z,1.00
2018-07-02T10:03:06.412Z,1.00
2018-07-02T10:05:08.462Z,1.00
2018-07-02T10:07:10.573Z,1.00
2018-07-02T10:09:12.818Z,1.00
2018-07-02T10:11:15.097Z,1.00
2018-07-02T10:13:17.535Z,1.00
2018-07-02T10:15:19.685Z,1.00
2018-07-02T10:17:21.803Z,1.00
2018-07-02T10:19:24.105Z,1.00
2018-07-02T10:21:26.221Z,1.00
2018-07-02T10:23:28.397Z,1.00
2018-07-02T10:25:30.527Z,1.00
2018-07-02T10:27:32.728Z,1.00
2018-07-02T10:29:34.762Z,1.00
2018-07-02T10:31:36.768Z,1.00
2018-07-02T10:33:38.813Z,1.00
2018-07-02T10:35:40.840Z,1.00
2018-07-02T10:37:43.240Z,1.00
2018-07-02T10:39:45.301Z,1.00
2018-07-02T10:41:47.348Z,1.00
2018-07-02T10:43:49.340Z,1.00
2018-07-02T10:45:51.403Z,1.00
2018-07-02T10:47:53.435Z,1.00
2018-07-02T10:49:55.465Z,1.00
2018-07-02T10:51:57.501Z,1.00
2018-07-02T10:53:59.538Z,1.00
2018-07-02T10:56:01.572Z,1.00
2018-07-02T10:58:03.602Z,1.00
2018-07-02T11:00:05.625Z,1.00
2018-07-02T11:02:07.699Z,1.00
2018-07-02T11:04:09.764Z,1.00
2018-07-02T11:06:11.865Z,1.00
2018-07-02T11:08:13.976Z,1.00
2018-07-02T11:10:16.038Z,1.00
2018-07-02T11:12:18.109Z,1.00
2018-07-02T11:14:20.212Z,1.00
2018-07-02T11:16:22.244Z,1.00
2018-07-02T11:18:24.278Z,1.00
2018-07-02T11:20:26.403Z,1.00
2018-07-02T11:22:28.589Z,1.00
2018-07-02T11:24:30.672Z,1.00
2018-07-02T11:26:32.778Z,1.00
2018-07-02T11:28:34.989Z,1.00
2018-07-02T11:30:37.088Z,1.00
2018-07-02T11:32:39.183Z,1.00
2018-07-02T11:34:41.200Z,1.00
2018-07-02T11:36:43.247Z,1.00
2018-07-02T11:38:45.257Z,1.00
2018-07-02T11:40:47.277Z,1.00
2018-07-02T11:42:49.329Z,1.00
2018-07-02T11:44:51.331Z,1.00
2018-07-02T11:46:53.342Z,1.00
2018-07-02T11:48:55.395Z,1.00
2018-07-02T11:50:57.763Z,1.00
2018-07-02T11:53:00.525Z,1.00
2018-07-02T11:57:04.891Z,1.00
2018-07-02T11:59:06.945Z,1.00
2018-07-02T12:03:11.357Z,1.00
2018-07-02T12:05:13.395Z,1.00
2018-07-02T12:07:15.435Z,1.00
2018-07-02T12:09:17.491Z,1.00
2018-07-02T12:11:19.561Z,1.00
2018-07-02T12:13:21.647Z,1.00
2018-07-02T12:15:23.786Z,1.00
2018-07-02T12:17:25.927Z,1.00
2018-07-02T12:19:28.009Z,1.00
2018-07-02T12:21:30.057Z,1.00
2018-07-02T12:23:32.120Z,1.00
2018-07-02T12:25:34.165Z,1.00
2018-07-02T12:27:36.296Z,1.00
2018-07-02T12:29:38.408Z,1.00
2018-07-02T12:31:40.468Z,1.00
2018-07-02T12:33:42.587Z,1.00
2018-07-02T12:35:44.955Z,1.00
2018-07-02T12:37:47.482Z,1.00
2018-07-02T12:39:49.803Z,1.00
2018-07-02T12:41:51.981Z,1.00
2018-07-02T12:43:54.166Z,1.00
2018-07-02T12:45:56.429Z,1.00
2018-07-02T12:47:58.624Z,1.00
2018-07-02T12:50:00.788Z,1.00
2018-07-02T12:52:03.083Z,1.00
2018-07-02T12:54:05.324Z,1.00
2018-07-02T12:56:07.586Z,1.00
2018-07-02T12:58:09.803Z,1.00
2018-07-02T13:02:14.973Z,1.00
2018-07-02T13:04:19.676Z,1.00
2018-07-02T13:06:21.950Z,1.00
2018-07-02T13:08:25.427Z,1.00
2018-07-02T13:10:27.696Z,1.00
2018-07-02T13:12:29.848Z,1.00
2018-07-02T13:14:36.179Z,1.00
2018-07-02T13:16:38.818Z,1.00
2018-07-02T13:18:40.965Z,1.00
2018-07-02T13:20:45.401Z,1.00
2018-07-02T13:22:48.562Z,1.00
2018-07-02T13:24:51.192Z,1.00
2018-07-02T13:26:53.450Z,1.00
2018-07-02T13:28:58.769Z,1.00
2018-07-02T13:31:01.095Z,1.00
2018-07-02T13:33:04.368Z,1.00
2018-07-02T13:35:06.525Z,1.00
2018-07-02T13:37:08.568Z,1.00
2018-07-02T13:39:10.666Z,1.00
2018-07-02T13:41:12.728Z,1.00
2018-07-02T13:43:14.805Z,1.00
2018-07-02T13:45:16.934Z,1.00
2018-07-02T13:47:19.000Z,1.00
2018-07-02T13:49:21.111Z,1.00
2018-07-02T13:51:23.177Z,1.00
2018-07-02T13:53:25.409Z,1.00
2018-07-02T13:55:27.609Z,1.00
2018-07-02T13:57:29.749Z,1.00
2018-07-02T13:59:31.848Z,1.00
2018-07-02T14:01:33.914Z,1.00
2018-07-02T14:03:36.040Z,1.00
2018-07-02T14:05:38.194Z,1.00
2018-07-02T14:07:40.308Z,1.00
2018-07-02T14:09:42.396Z,1.00
2018-07-02T14:11:44.524Z,1.00
2018-07-02T14:13:46.624Z,1.00
2018-07-02T14:15:48.992Z,1.00
2018-07-02T14:17:51.112Z,1.00
2018-07-02T14:19:53.185Z,1.00
2018-07-02T14:21:55.360Z,1.00
2018-07-02T14:23:57.654Z,1.00
2018-07-02T14:25:59.698Z,1.00
2018-07-02T14:28:01.800Z,1.00
2018-07-02T14:30:04.397Z,1.00
2018-07-02T14:32:06.489Z,1.00
2018-07-02T14:34:08.541Z,1.00
2018-07-02T14:36:10.632Z,1.00
2018-07-02T14:38:12.729Z,1.00
2018-07-02T14:40:14.819Z,1.00
2018-07-02T14:42:16.914Z,1.00
2018-07-02T14:44:19.000Z,1.00
2018-07-02T14:46:21.056Z,1.00
2018-07-02T14:48:23.122Z,1.00
2018-07-02T14:50:25.181Z,1.00
2018-07-02T14:52:27.521Z,1.00
2018-07-02T14:54:29.612Z,1.00
2018-07-02T14:56:31.693Z,1.00
2018-07-02T14:58:33.788Z,1.00
2018-07-02T15:00:35.929Z,1.00
2018-07-02T15:02:38.006Z,1.00
2018-07-02T15:04:40.140Z,1.00
2018-07-02T15:06:42.226Z,1.00
2018-07-02T15:08:44.257Z,1.00
2018-07-02T15:10:46.269Z,1.00
2018-07-02T15:12:48.321Z,1.00
2018-07-02T15:14:50.354Z,1.00
2018-07-02T15:16:52.548Z,1.00
2018-07-02T15:18:54.533Z,1.00
2018-07-02T15:20:56.540Z,1.00
2018-07-02T15:22:58.565Z,1.00
2018-07-02T15:25:00.580Z,1.00
2018-07-02T15:27:02.603Z,1.00
2018-07-02T15:29:04.758Z,1.00
2018-07-02T15:31:06.761Z,1.00
2018-07-02T15:33:08.881Z,1.00
2018-07-02T15:35:10.947Z,1.00
2018-07-02T15:37:13.008Z,1.00
2018-07-02T15:39:15.040Z,1.00
2018-07-02T15:41:17.048Z,1.00
2018-07-02T15:43:19.056Z,1.00
2018-07-02T15:45:21.082Z,1.00
2018-07-02T15:47:23.090Z,1.00
2018-07-02T15:49:25.101Z,1.00
2018-07-02T15:51:27.096Z,1.00
2018-07-02T15:53:29.104Z,1.00
2018-07-02T15:55:31.124Z,1.00
2018-07-02T15:57:33.202Z,1.00
2018-07-02T15:59:35.212Z,1.00
2018-07-02T16:01:37.260Z,1.00
2018-07-02T16:03:39.273Z,1.00
2018-07-02T16:05:41.305Z,1.00
2018-07-02T16:07:43.329Z,1.00
2018-07-02T16:09:45.368Z,1.00
2018-07-02T16:11:47.397Z,1.00
2018-07-02T16:13:49.411Z,1.00
2018-07-02T16:15:51.444Z,1.00
2018-07-02T16:17:53.481Z,1.00
2018-07-02T16:19:55.511Z,1.00
2018-07-02T16:21:57.565Z,1.00
2018-07-02T16:23:59.599Z,1.00
2018-07-02T16:26:01.651Z,1.00
2018-07-02T16:28:03.848Z,1.00
2018-07-02T16:30:07.274Z,1.00
2018-07-02T16:32:09.297Z,1.00
2018-07-02T16:34:11.368Z,1.00
2018-07-02T16:36:13.380Z,1.00
2018-07-02T16:38:15.424Z,1.00
2018-07-02T16:40:17.475Z,1.00
2018-07-02T16:42:19.517Z,1.00
2018-07-02T16:44:21.557Z,1.00
2018-07-02T16:46:23.589Z,1.00
2018-07-02T16:48:25.614Z,1.00
2018-07-02T16:50:27.641Z,1.00
2018-07-02T16:52:29.744Z,1.00
2018-07-02T16:54:31.728Z,1.00
2018-07-02T16:56:34.579Z,1.00
2018-07-02T16:58:36.605Z,1.00
2018-07-02T17:00:38.633Z,1.00
2018-07-02T17:02:40.686Z,1.00
2018-07-02T17:04:42.729Z,1.00
2018-07-02T17:06:44.737Z,1.00
2018-07-02T17:08:46.756Z,1.00
2018-07-02T17:10:48.784Z,1.00
2018-07-02T17:12:50.793Z,1.00
2018-07-02T17:14:52.818Z,1.00
2018-07-02T17:16:54.830Z,1.00
2018-07-02T17:18:56.873Z,1.00
2018-07-02T17:20:58.894Z,1.00
2018-07-02T17:23:00.914Z,1.00
2018-07-02T17:25:03.013Z,1.00
2018-07-02T17:27:05.021Z,1.00
2018-07-02T17:29:07.028Z,1.00
2018-07-02T17:31:09.046Z,1.00
2018-07-02T17:33:11.069Z,1.00
2018-07-02T17:35:13.120Z,1.00
2018-07-02T17:37:15.132Z,1.00
2018-07-02T17:39:17.172Z,1.00
2018-07-02T17:41:19.193Z,1.00
2018-07-02T17:43:21.338Z,1.00
2018-07-02T17:45:23.393Z,1.00
2018-07-02T17:47:25.416Z,1.00
2018-07-02T17:49:27.434Z,1.00
2018-07-02T17:51:29.512Z,1.00
2018-07-02T17:53:31.580Z,1.00
2018-07-02T17:55:33.572Z,1.00
2018-07-02T17:57:35.620Z,1.00
2018-07-02T17:59:37.638Z,1.00
2018-07-02T18:01:39.668Z,1.00
2018-07-02T18:03:41.700Z,1.00
2018-07-02T18:05:43.764Z,1.00
2018-07-02T18:07:45.889Z,1.00
2018-07-02T18:09:48.013Z,1.00
2018-07-02T18:11:50.021Z,1.00
2018-07-02T18:13:52.077Z,1.00
2018-07-02T18:15:54.114Z,1.00
2018-07-02T18:17:56.129Z,1.00
2018-07-02T18:19:58.148Z,1.00
2018-07-02T18:22:00.192Z,1.00
2018-07-02T18:24:02.316Z,1.00
2018-07-02T18:26:04.331Z,1.00
2018-07-02T18:28:06.493Z,1.00
2018-07-02T18:30:08.864Z,1.00
2018-07-02T18:32:10.894Z,2.10
2018-07-02T18:34:12.896Z,1.00
2018-07-02T18:36:14.933Z,1.00
2018-07-02T18:38:17.176Z,1.00
2018-07-02T18:42:21.317Z,1.10
2018-07-02T18:44:23.327Z,1.00
2018-07-02T18:46:25.345Z,2.10
2018-07-02T18:48:27.382Z,1.30
2018-07-02T18:50:29.404Z,1.50
2018-07-02T18:52:31.405Z,3.30
2018-07-02T18:54:33.430Z,4.90
2018-07-02T18:56:35.449Z,5.90
2018-07-02T18:58:37.519Z,7.10
2018-07-02T19:00:39.553Z,7.40
2018-07-02T19:02:41.604Z,1.30
2018-07-02T19:04:43.624Z,8.90
2018-07-02T19:06:45.668Z,6.80
2018-07-02T19:08:47.684Z,6.80
2018-07-02T19:10:49.877Z,5.60
2018-07-02T19:12:51.904Z,7.10
2018-07-02T19:14:53.940Z,11.80
2018-07-02T19:16:55.980Z,10.00
2018-07-02T19:18:57.996Z,15.10
2018-07-02T19:21:00.033Z,13.00
2018-07-02T19:23:02.103Z,16.30
2018-07-02T19:25:04.936Z,15.50
2018-07-02T19:27:06.976Z,15.80
2018-07-02T19:29:09.073Z,15.60
2018-07-02T19:31:11.131Z,17.90
2018-07-02T19:33:13.158Z,17.90
2018-07-02T19:35:15.186Z,15.40
2018-07-02T19:37:17.234Z,16.70
2018-07-02T19:39:19.255Z,13.70
2018-07-02T19:41:21.281Z,15.40
2018-07-02T19:43:23.324Z,13.30
2018-07-02T19:45:25.372Z,14.70
2018-07-02T19:47:27.439Z,13.90
2018-07-02T19:49:29.405Z,17.20
2018-07-02T19:51:31.433Z,18.80
2018-07-02T19:53:33.468Z,19.80
2018-07-02T19:55:35.512Z,20.40
2018-07-02T19:57:37.555Z,21.20
2018-07-02T19:59:39.577Z,16.80
2018-07-02T20:01:41.618Z,19.30
2018-07-02T20:03:43.657Z,17.80
2018-07-02T20:05:45.692Z,18.80
2018-07-02T20:07:47.726Z,19.00
2018-07-02T20:09:49.755Z,22.30
2018-07-02T20:11:51.781Z,22.80
2018-07-02T20:13:53.890Z,21.40
2018-07-02T20:15:56.037Z,22.70
2018-07-02T20:17:58.056Z,20.80
2018-07-02T20:20:00.093Z,18.50
2018-07-02T20:22:02.111Z,19.90
2018-07-02T20:24:04.254Z,22.50
2018-07-02T20:26:06.353Z,20.90
2018-07-02T20:28:08.468Z,19.70
2018-07-02T20:30:10.513Z,22.30
2018-07-02T20:32:12.584Z,22.00
2018-07-02T20:34:14.685Z,18.60
2018-07-02T20:36:16.706Z,18.10
2018-07-02T20:38:18.931Z,22.00
2018-07-02T20:40:21.008Z,22.50
2018-07-02T20:42:23.053Z,21.70
2018-07-02T20:44:25.119Z,22.40
2018-07-02T20:46:27.153Z,24.30
2018-07-02T20:48:29.234Z,22.20
2018-07-02T20:50:31.245Z,24.70
2018-07-02T20:52:33.402Z,20.80
2018-07-02T20:54:35.420Z,23.60
2018-07-02T20:56:37.469Z,24.00
2018-07-02T20:58:39.500Z,23.20
2018-07-02T21:00:41.505Z,20.20
2018-07-02T21:02:43.698Z,21.30
2018-07-02T21:04:45.760Z,19.80
2018-07-02T21:06:47.786Z,23.10
2018-07-02T21:08:49.835Z,21.40
2018-07-02T21:10:51.832Z,22.30
2018-07-02T21:12:53.874Z,23.60
2018-07-02T21:14:55.917Z,24.20
2018-07-02T21:16:57.989Z,22.10
2018-07-02T21:19:00.053Z,22.50
2018-07-02T21:21:02.084Z,24.20
2018-07-02T21:23:04.162Z,26.40
2018-07-02T21:25:06.197Z,25.60
2018-07-02T21:27:08.221Z,25.40
2018-07-02T21:29:10.339Z,25.60
2018-07-02T21:31:12.377Z,26.70
2018-07-02T21:33:14.408Z,26.10
2018-07-02T21:35:16.436Z,26.70
2018-07-02T21:37:18.480Z,25.40
2018-07-02T21:39:20.485Z,27.00
2018-07-02T21:41:22.498Z,26.60
2018-07-02T21:43:24.521Z,27.20
2018-07-02T21:45:26.556Z,26.50
2018-07-02T21:47:28.604Z,28.10
2018-07-02T21:49:30.613Z,29.00
2018-07-02T21:51:32.645Z,27.80
2018-07-02T21:53:34.669Z,26.20
2018-07-02T21:55:36.689Z,23.90
2018-07-02T21:57:38.753Z,22.30
2018-07-02T21:59:40.817Z,22.00
2018-07-02T22:01:42.847Z,24.20
2018-07-02T22:03:44.884Z,25.00
2018-07-02T22:05:46.901Z,24.80
2018-07-02T22:07:48.952Z,24.60
2018-07-02T22:09:51.028Z,24.30
2018-07-02T22:11:53.053Z,28.40
2018-07-02T22:13:55.097Z,29.50
2018-07-02T22:15:57.104Z,29.50
2018-07-02T22:17:59.164Z,28.20
2018-07-02T22:20:01.236Z,27.10
2018-07-02T22:22:03.276Z,29.60
2018-07-02T22:24:05.317Z,29.70
2018-07-02T22:26:07.393Z,30.60
2018-07-02T22:28:09.433Z,29.50
2018-07-02T22:30:11.458Z,27.30
2018-07-02T22:32:13.473Z,28.80
2018-07-02T22:34:15.516Z,34.20
2018-07-02T22:36:17.559Z,28.10
2018-07-02T22:38:19.595Z,30.20
2018-07-02T22:40:21.613Z,31.10
2018-07-02T22:42:23.623Z,28.40
2018-07-02T22:44:25.658Z,29.10
2018-07-02T22:46:27.889Z,28.30
2018-07-02T22:48:29.932Z,31.30
2018-07-02T22:50:31.951Z,29.70
2018-07-02T22:52:34.140Z,29.70
2018-07-02T22:54:36.178Z,29.50
2018-07-02T22:56:38.218Z,29.60
2018-07-02T22:58:41.264Z,30.50
2018-07-02T23:00:43.292Z,30.50
2018-07-02T23:02:45.323Z,30.50
2018-07-02T23:04:47.349Z,31.20
2018-07-02T23:06:49.389Z,31.40
2018-07-02T23:08:51.425Z,30.80
2018-07-02T23:10:53.453Z,31.10
2018-07-02T23:12:55.492Z,32.90
2018-07-02T23:14:57.520Z,33.30
2018-07-02T23:16:59.549Z,35.60
2018-07-02T23:19:01.577Z,35.70
2018-07-02T23:21:03.624Z,36.80
2018-07-02T23:23:05.678Z,35.40
2018-07-02T23:27:09.804Z,36.90
2018-07-02T23:29:11.956Z,37.10
2018-07-02T23:31:13.984Z,35.50
2018-07-02T23:33:16.037Z,35.20
2018-07-02T23:35:18.534Z,34.70
2018-07-02T23:37:20.560Z,33.10
2018-07-02T23:39:22.597Z,33.70
2018-07-02T23:41:24.647Z,34.60
2018-07-02T23:43:26.676Z,34.30
2018-07-02T23:45:28.739Z,34.60
2018-07-02T23:47:30.841Z,35.40
2018-07-02T23:49:32.872Z,34.80
2018-07-02T23:51:34.903Z,33.70
2018-07-02T23:53:36.937Z,34.00
2018-07-02T23:55:38.971Z,35.30
2018-07-02T23:57:40.992Z,35.00
2018-07-02T23:59:43.022Z,36.70
